EYKS weather

S. Darius and S. Gir─Śnas Airport
Kaunas, Kaunas County, Lithuania

Public forecast

Using degrees Celsius for public forecast. Weather courtesy of forecast.io.

METAR (pilot weather report)

Closest report is Kaunas International Airport, 8.6 nm (16.0 km) NE. Retrieved 2019/02/17 14:20 UTC (4 minutes ago):

EYKA 171420Z 29005KT 250V320 9999 SCT018 OVC027 06/02 Q1020 R08/190095

TAF (pilot weather forecast)

Forecast is more than 6 hours old.

Closest forecast is Kaunas International Airport, 8.6 nm (16.0 km) NE. Retrieved 2019/02/17 06:21 UTC (8 hours ago):

TAF EYKA 170518Z 1706/1806 28014KT 6000 OVC020 TEMPO 1706/1712 3000 -RA BR BKN005 BECMG 1712/1713 3000 BR OVC006 TEMPO 1713/1720 0600 FG VV002 BECMG 1720/1721 VRB05KT 0500 FG VV002 TEMPO 1722/1806 0800